createdAt,value
2019-04-10T00:00:39.170Z,6.40
2019-04-10T00:03:08.267Z,6.40
2019-04-10T00:05:37.967Z,6.40
2019-04-10T00:08:08.126Z,6.40
2019-04-10T00:10:38.224Z,6.30
2019-04-10T00:13:07.126Z,6.30
2019-04-10T00:15:35.934Z,6.20
2019-04-10T00:18:05.322Z,6.20
2019-04-10T00:20:35.062Z,6.20
2019-04-10T00:23:03.841Z,6.20
2019-04-10T00:25:32.900Z,6.10
2019-04-10T00:28:01.670Z,6.10
2019-04-10T00:30:31.259Z,6.10
2019-04-10T00:33:00.546Z,6.00
2019-04-10T00:35:29.757Z,6.00
2019-04-10T00:37:59.543Z,5.90
2019-04-10T00:40:28.368Z,6.00
2019-04-10T00:42:58.594Z,6.00
2019-04-10T00:45:27.451Z,5.90
2019-04-10T00:47:56.366Z,5.80
2019-04-10T00:50:25.082Z,5.80
2019-04-10T00:52:54.693Z,5.80
2019-04-10T00:55:23.767Z,5.70
2019-04-10T00:57:52.650Z,5.70
2019-04-10T01:00:22.011Z,5.70
2019-04-10T01:02:51.395Z,5.60
2019-04-10T01:05:20.274Z,5.60
2019-04-10T01:07:48.979Z,5.50
2019-04-10T01:10:17.898Z,5.60
2019-04-10T01:12:46.781Z,5.50
2019-04-10T01:15:15.457Z,5.50
2019-04-10T01:17:44.140Z,5.50
2019-04-10T01:20:13.330Z,5.50
2019-04-10T01:22:42.173Z,5.50
2019-04-10T01:25:11.113Z,5.40
2019-04-10T01:27:41.040Z,5.40
2019-04-10T01:30:10.488Z,5.40
2019-04-10T01:32:39.788Z,5.30
2019-04-10T01:35:09.812Z,5.20
2019-04-10T01:37:48.882Z,5.20
2019-04-10T01:40:09.091Z,5.20
2019-04-10T01:42:38.640Z,5.10
2019-04-10T01:45:07.899Z,5.10
2019-04-10T01:47:37.285Z,5.10
2019-04-10T01:50:06.395Z,5.10
2019-04-10T01:52:35.447Z,5.00
2019-04-10T01:55:18.120Z,5.00
2019-04-10T01:57:34.811Z,5.00
2019-04-10T02:00:04.655Z,5.00
2019-04-10T02:02:41.173Z,4.90
2019-04-10T02:05:09.877Z,4.80
2019-04-10T02:07:38.562Z,4.80
2019-04-10T02:10:07.931Z,4.80
2019-04-10T02:12:36.851Z,4.70
2019-04-10T02:15:07.082Z,4.70
2019-04-10T02:17:36.862Z,4.70
2019-04-10T02:20:07.021Z,4.70
2019-04-10T02:22:36.317Z,4.70
2019-04-10T02:25:05.290Z,4.60
2019-04-10T02:27:34.314Z,4.50
2019-04-10T02:30:04.888Z,4.50
2019-04-10T02:32:34.515Z,4.50
2019-04-10T02:35:03.866Z,4.50
2019-04-10T02:37:33.365Z,4.40
2019-04-10T02:40:04.547Z,4.40
2019-04-10T02:42:32.557Z,4.40
2019-04-10T02:45:02.252Z,4.40
2019-04-10T02:47:31.476Z,4.30
2019-04-10T02:50:00.739Z,4.30
2019-04-10T02:52:30.853Z,4.30
2019-04-10T02:54:59.709Z,4.30
2019-04-10T02:57:29.443Z,4.20
2019-04-10T03:00:00.839Z,4.20
2019-04-10T03:02:29.409Z,4.20
2019-04-10T03:04:59.419Z,4.20
2019-04-10T03:07:28.407Z,4.10
2019-04-10T03:10:12.014Z,4.10
2019-04-10T03:12:28.434Z,4.10
2019-04-10T03:14:59.149Z,4.10
2019-04-10T03:17:28.195Z,4.10
2019-04-10T03:19:58.063Z,4.10
2019-04-10T03:22:27.700Z,4.10
2019-04-10T03:24:56.822Z,4.10
2019-04-10T03:27:26.061Z,4.10
2019-04-10T03:29:55.986Z,4.00
2019-04-10T03:32:47.628Z,3.90
2019-04-10T03:35:18.737Z,4.00
2019-04-10T03:37:48.639Z,3.90
2019-04-10T03:40:17.476Z,3.90
2019-04-10T03:42:47.269Z,3.90
2019-04-10T03:45:16.330Z,3.80
2019-04-10T03:47:45.207Z,3.80
2019-04-10T03:50:14.259Z,3.80
2019-04-10T03:52:43.311Z,3.80
2019-04-10T03:55:12.578Z,3.80
2019-04-10T03:57:41.425Z,3.70
2019-04-10T04:00:10.195Z,3.70
2019-04-10T04:02:39.974Z,3.70
2019-04-10T04:05:08.863Z,3.70
2019-04-10T04:07:38.779Z,3.60
2019-04-10T04:10:09.334Z,3.60
2019-04-10T04:12:39.150Z,3.60
2019-04-10T04:15:07.903Z,3.50
2019-04-10T04:17:36.671Z,3.50
2019-04-10T04:20:06.415Z,3.40
2019-04-10T04:22:35.317Z,3.40
2019-04-10T04:25:04.578Z,3.30
2019-04-10T04:27:33.623Z,3.30
2019-04-10T04:30:02.302Z,3.20
2019-04-10T04:32:31.524Z,3.30
2019-04-10T04:35:00.271Z,3.20
2019-04-10T04:37:30.085Z,3.20
2019-04-10T04:39:59.069Z,3.20
2019-04-10T04:42:28.702Z,3.20
2019-04-10T04:44:58.301Z,3.20
2019-04-10T04:47:27.115Z,3.10
2019-04-10T04:49:55.845Z,3.00
2019-04-10T04:52:24.537Z,3.00
2019-04-10T04:54:53.361Z,3.00
2019-04-10T04:57:22.665Z,3.00
2019-04-10T04:59:51.373Z,3.00
2019-04-10T05:02:20.241Z,2.90
2019-04-10T05:04:49.367Z,2.90
2019-04-10T05:07:18.142Z,2.90
2019-04-10T05:09:46.895Z,2.90
2019-04-10T05:12:16.544Z,2.90
2019-04-10T05:14:46.158Z,3.00
2019-04-10T05:17:16.668Z,2.90
2019-04-10T05:19:45.485Z,2.80
2019-04-10T05:22:14.409Z,2.80
2019-04-10T05:24:43.284Z,2.80
2019-04-10T05:27:12.075Z,2.90
2019-04-10T05:29:40.949Z,2.90
2019-04-10T05:32:09.859Z,2.90
2019-04-10T05:34:38.578Z,2.90
2019-04-10T05:37:07.403Z,3.00
2019-04-10T05:39:43.180Z,2.90
2019-04-10T05:42:06.781Z,3.00
2019-04-10T05:44:36.057Z,3.00
2019-04-10T05:47:05.380Z,2.90
2019-04-10T05:49:35.102Z,3.00
2019-04-10T05:52:04.238Z,3.00
2019-04-10T05:54:33.367Z,3.10
2019-04-10T05:57:02.170Z,3.10
2019-04-10T05:59:30.899Z,3.10
2019-04-10T06:02:01.010Z,3.20
2019-04-10T06:04:29.828Z,3.10
2019-04-10T06:06:58.899Z,3.10
2019-04-10T06:09:27.676Z,3.20
2019-04-10T06:11:57.309Z,3.20
2019-04-10T06:14:26.238Z,3.20
2019-04-10T06:16:58.097Z,3.30
2019-04-10T06:19:27.008Z,3.30
2019-04-10T06:21:56.576Z,3.30
2019-04-10T06:24:25.366Z,3.30
2019-04-10T06:26:54.153Z,3.40
2019-04-10T06:29:23.259Z,3.40
2019-04-10T06:31:52.781Z,3.50
2019-04-10T06:34:22.587Z,3.60
2019-04-10T06:36:51.545Z,3.70
2019-04-10T06:39:20.596Z,3.70
2019-04-10T06:41:50.843Z,3.80
2019-04-10T06:44:19.698Z,3.90
2019-04-10T06:46:48.674Z,3.90
2019-04-10T06:49:17.509Z,4.00
2019-04-10T06:51:46.194Z,4.00
2019-04-10T06:54:14.945Z,4.10
2019-04-10T06:56:43.658Z,4.20
2019-04-10T06:59:12.386Z,4.30
2019-04-10T07:01:48.772Z,4.30
2019-04-10T07:04:11.671Z,4.50
2019-04-10T07:06:53.996Z,4.50
2019-04-10T07:09:15.721Z,4.40
2019-04-10T07:11:44.980Z,4.40
2019-04-10T07:14:14.408Z,4.50
2019-04-10T07:16:44.257Z,4.60
2019-04-10T07:19:13.250Z,4.70
2019-04-10T07:21:42.738Z,4.80
2019-04-10T07:24:14.682Z,4.70
2019-04-10T07:26:44.887Z,4.70
2019-04-10T07:29:16.377Z,4.80
2019-04-10T07:31:42.932Z,4.80
2019-04-10T07:34:11.584Z,4.90
2019-04-10T07:36:42.502Z,4.90
2019-04-10T07:39:10.961Z,5.10
2019-04-10T07:41:39.766Z,5.20
2019-04-10T07:44:08.550Z,5.20
2019-04-10T07:46:38.149Z,5.30
2019-04-10T07:49:07.075Z,5.50
2019-04-10T07:51:36.691Z,5.70
2019-04-10T07:54:06.141Z,5.80
2019-04-10T07:56:35.389Z,5.80
2019-04-10T07:59:04.655Z,5.90
2019-04-10T08:01:33.463Z,5.90
2019-04-10T08:04:02.298Z,6.00
2019-04-10T08:06:31.005Z,6.20
2019-04-10T08:08:59.681Z,6.40
2019-04-10T08:11:29.526Z,6.40
2019-04-10T08:13:58.393Z,6.30
2019-04-10T08:16:27.352Z,6.40
2019-04-10T08:18:56.340Z,6.50
2019-04-10T08:21:25.064Z,6.60
2019-04-10T08:23:54.804Z,6.70
2019-04-10T08:26:24.678Z,6.80
2019-04-10T08:28:53.773Z,6.90
2019-04-10T08:31:23.767Z,7.00
2019-04-10T08:33:52.724Z,7.10
2019-04-10T08:36:21.590Z,7.10
2019-04-10T08:38:50.867Z,7.00
2019-04-10T08:41:19.685Z,7.10
2019-04-10T08:43:48.486Z,7.00
2019-04-10T08:46:17.696Z,7.30
2019-04-10T08:48:47.560Z,7.30
2019-04-10T08:51:17.047Z,7.40
2019-04-10T08:53:46.707Z,7.50
2019-04-10T08:56:16.247Z,7.70
2019-04-10T08:58:45.337Z,7.70
2019-04-10T09:01:14.326Z,7.70
2019-04-10T09:04:23.813Z,7.70
2019-04-10T09:06:52.845Z,7.70
2019-04-10T09:09:21.630Z,7.80
2019-04-10T09:11:51.376Z,8.00
2019-04-10T09:14:21.132Z,8.00
2019-04-10T09:16:51.000Z,7.90
2019-04-10T09:19:20.456Z,7.90
2019-04-10T09:21:49.899Z,8.10
2019-04-10T09:24:19.533Z,8.10
2019-04-10T09:26:48.694Z,8.20
2019-04-10T09:29:18.186Z,8.30
2019-04-10T09:31:48.113Z,8.20
2019-04-10T09:34:17.920Z,8.20
2019-04-10T09:36:46.697Z,8.20
2019-04-10T09:39:15.633Z,8.40
2019-04-10T09:41:44.493Z,8.50
2019-04-10T09:44:14.353Z,8.70
2019-04-10T09:46:43.163Z,8.70
2019-04-10T09:49:12.377Z,8.60
2019-04-10T09:51:42.394Z,8.70
2019-04-10T09:54:11.404Z,8.60
2019-04-10T09:56:40.175Z,8.60
2019-04-10T09:59:09.667Z,8.70
2019-04-10T10:01:38.496Z,8.70
2019-04-10T10:04:07.179Z,8.70
2019-04-10T10:06:36.994Z,8.80
2019-04-10T10:09:08.265Z,8.70
2019-04-10T10:11:38.473Z,9.00
2019-04-10T10:14:07.317Z,9.10
2019-04-10T10:16:36.030Z,9.00
2019-04-10T10:19:05.760Z,9.10
2019-04-10T10:21:34.647Z,9.00
2019-04-10T10:24:04.441Z,9.20
2019-04-10T10:26:34.305Z,9.20
2019-04-10T10:29:03.470Z,9.20
2019-04-10T10:31:32.501Z,9.10
2019-04-10T10:34:01.912Z,9.10
2019-04-10T10:36:40.744Z,9.20
2019-04-10T10:39:07.070Z,9.20
2019-04-10T10:41:31.937Z,9.20
2019-04-10T10:44:00.680Z,9.20
2019-04-10T10:46:29.978Z,9.20
2019-04-10T10:48:58.721Z,9.40
2019-04-10T10:51:27.456Z,9.60
2019-04-10T10:53:56.664Z,9.90
2019-04-10T10:56:26.773Z,9.90
2019-04-10T10:58:57.789Z,9.90
2019-04-10T11:01:26.189Z,9.90
2019-04-10T11:03:55.026Z,10.10
2019-04-10T11:06:24.923Z,10.20
2019-04-10T11:08:53.830Z,10.20
2019-04-10T11:11:22.824Z,9.90
2019-04-10T11:13:51.737Z,9.90
2019-04-10T11:16:20.673Z,9.70
2019-04-10T11:18:50.811Z,10.00
2019-04-10T11:21:20.701Z,10.10
2019-04-10T11:23:49.583Z,10.10
2019-04-10T11:28:49.973Z,10.10
2019-04-10T11:31:23.636Z,10.20
2019-04-10T11:33:55.633Z,10.10
2019-04-10T11:36:23.519Z,10.40
2019-04-10T11:38:55.359Z,10.60
2019-04-10T11:41:23.454Z,10.30
2019-04-10T11:43:55.839Z,10.50
2019-04-10T11:46:25.312Z,10.40
2019-04-10T11:48:55.353Z,10.40
2019-04-10T11:51:29.802Z,10.50
2019-04-10T11:53:56.958Z,10.60
2019-04-10T11:56:26.819Z,10.20
2019-04-10T11:58:56.935Z,10.10
2019-04-10T12:01:27.912Z,10.00
2019-04-10T12:03:58.040Z,10.10
2019-04-10T12:06:29.729Z,10.10
2019-04-10T12:09:26.123Z,10.40
2019-04-10T12:11:27.543Z,10.50
2019-04-10T12:13:56.737Z,10.60
2019-04-10T12:16:25.544Z,10.50
2019-04-10T12:18:55.039Z,10.30
2019-04-10T12:21:24.832Z,10.20
2019-04-10T12:23:53.635Z,10.40
2019-04-10T12:26:23.302Z,10.80
2019-04-10T12:28:52.282Z,11.10
2019-04-10T12:31:21.045Z,11.00
2019-04-10T12:33:50.722Z,10.90
2019-04-10T12:36:20.449Z,10.70
2019-04-10T12:38:49.839Z,10.70
2019-04-10T12:41:19.293Z,11.10
2019-04-10T12:43:49.269Z,11.10
2019-04-10T12:46:19.079Z,10.80
2019-04-10T12:48:47.929Z,10.60
2019-04-10T12:51:17.418Z,10.70
2019-04-10T12:53:46.235Z,10.90
2019-04-10T12:56:15.742Z,10.90
2019-04-10T13:01:12.111Z,10.60
2019-04-10T13:03:41.148Z,11.10
2019-04-10T13:06:13.663Z,11.00
2019-04-10T13:08:57.041Z,11.20
2019-04-10T13:11:13.073Z,11.10
2019-04-10T13:13:42.187Z,11.30
2019-04-10T13:16:11.990Z,11.00
2019-04-10T13:18:40.781Z,10.90
2019-04-10T13:21:10.395Z,10.90
2019-04-10T13:23:39.677Z,11.10
2019-04-10T13:26:10.415Z,11.20
2019-04-10T13:28:39.373Z,11.50
2019-04-10T13:31:08.887Z,11.50
2019-04-10T13:33:38.571Z,11.30
2019-04-10T13:36:07.509Z,11.50
2019-04-10T13:38:36.935Z,11.50
2019-04-10T13:41:06.779Z,11.80
2019-04-10T13:43:36.017Z,12.00
2019-04-10T13:46:04.878Z,12.00
2019-04-10T13:48:33.684Z,12.10
2019-04-10T13:51:03.403Z,11.70
2019-04-10T13:53:32.260Z,11.70
2019-04-10T13:56:01.153Z,11.80
2019-04-10T13:58:30.969Z,11.60
2019-04-10T14:01:00.965Z,11.80
2019-04-10T14:03:30.157Z,11.90
2019-04-10T14:05:59.102Z,12.20
2019-04-10T14:08:48.309Z,12.10
2019-04-10T14:10:58.657Z,11.70
2019-04-10T14:13:27.581Z,11.70
2019-04-10T14:15:56.446Z,11.70
2019-04-10T14:18:26.181Z,11.80
2019-04-10T14:20:55.485Z,12.00
2019-04-10T14:23:28.761Z,11.80
2019-04-10T14:26:06.546Z,11.70
2019-04-10T14:28:35.531Z,11.30
2019-04-10T14:31:09.658Z,11.40
2019-04-10T14:33:38.404Z,11.60
2019-04-10T14:36:07.574Z,11.80
2019-04-10T14:38:36.407Z,12.20
2019-04-10T14:41:05.327Z,12.40
2019-04-10T14:43:34.151Z,12.30
2019-04-10T14:46:02.957Z,11.70
2019-04-10T14:48:33.085Z,11.40
2019-04-10T14:51:01.937Z,11.30
2019-04-10T14:53:31.160Z,11.70
2019-04-10T14:55:59.999Z,12.00
2019-04-10T14:58:30.833Z,12.20
2019-04-10T15:00:59.841Z,12.30
2019-04-10T15:03:28.667Z,12.20
2019-04-10T15:05:59.819Z,12.10
2019-04-10T15:08:28.118Z,12.00
2019-04-10T15:10:56.945Z,11.80
2019-04-10T15:13:25.859Z,11.90
2019-04-10T15:15:54.845Z,11.80
2019-04-10T15:18:23.691Z,11.90
2019-04-10T15:20:52.476Z,11.90
2019-04-10T15:23:21.199Z,12.00
2019-04-10T15:25:49.887Z,12.00
2019-04-10T15:28:18.592Z,12.20
2019-04-10T15:30:47.566Z,12.20
2019-04-10T15:33:16.407Z,12.10
2019-04-10T15:35:45.105Z,12.30
2019-04-10T15:38:14.080Z,12.40
2019-04-10T15:40:42.777Z,12.20
2019-04-10T15:43:12.624Z,12.00
2019-04-10T15:45:41.695Z,12.10
2019-04-10T15:48:10.506Z,12.30
2019-04-10T15:50:39.567Z,12.30
2019-04-10T15:53:09.646Z,12.20
2019-04-10T15:55:38.545Z,12.20
2019-04-10T15:58:08.645Z,12.20
2019-04-10T16:00:37.589Z,12.20
2019-04-10T16:03:06.289Z,12.00
2019-04-10T16:05:35.153Z,12.10
2019-04-10T16:08:03.933Z,12.00
2019-04-10T16:11:01.525Z,12.00
2019-04-10T16:13:35.265Z,12.00
2019-04-10T16:16:19.127Z,11.90
2019-04-10T16:18:48.974Z,11.90
2019-04-10T16:21:18.304Z,12.00
2019-04-10T16:23:56.260Z,12.00
2019-04-10T16:26:25.268Z,11.80
2019-04-10T16:28:54.005Z,11.60
2019-04-10T16:31:23.517Z,11.60
2019-04-10T16:33:52.526Z,11.70
2019-04-10T16:36:21.401Z,11.70
2019-04-10T16:38:51.130Z,11.80
2019-04-10T16:41:20.102Z,12.00
2019-04-10T16:43:48.834Z,12.00
2019-04-10T16:46:17.625Z,11.90
2019-04-10T16:48:46.362Z,11.80
2019-04-10T16:51:17.060Z,11.60
2019-04-10T16:53:45.567Z,11.70
2019-04-10T16:56:14.283Z,11.90
2019-04-10T16:58:43.073Z,11.70
2019-04-10T17:01:12.593Z,11.70
2019-04-10T17:03:42.107Z,11.60
2019-04-10T17:06:10.942Z,11.40
2019-04-10T17:08:40.688Z,11.30
2019-04-10T17:11:10.202Z,11.20
2019-04-10T17:13:38.919Z,11.20
2019-04-10T17:16:07.693Z,11.10
2019-04-10T17:18:36.397Z,10.90
2019-04-10T17:21:05.186Z,10.90
2019-04-10T17:23:34.435Z,10.80
2019-04-10T17:26:03.625Z,10.80
2019-04-10T17:28:32.648Z,10.70
2019-04-10T17:31:02.317Z,10.80
2019-04-10T17:33:32.260Z,10.90
2019-04-10T17:36:05.555Z,10.80
2019-04-10T17:38:34.960Z,10.70
2019-04-10T17:41:04.483Z,10.60
2019-04-10T17:43:34.946Z,10.40
2019-04-10T17:46:03.901Z,10.30
2019-04-10T17:48:34.620Z,10.20
2019-04-10T17:51:03.716Z,10.20
2019-04-10T17:53:33.580Z,10.20
2019-04-10T17:56:02.468Z,10.00
2019-04-10T17:58:33.830Z,9.90
2019-04-10T18:01:04.707Z,9.80
2019-04-10T18:03:42.839Z,9.70
2019-04-10T18:06:04.026Z,9.60
2019-04-10T18:08:32.780Z,9.50
2019-04-10T18:11:01.650Z,9.30
2019-04-10T18:13:30.841Z,9.30
2019-04-10T18:16:00.122Z,9.20
2019-04-10T18:18:32.027Z,9.20
2019-04-10T18:21:00.770Z,9.20
2019-04-10T18:23:29.562Z,9.00
2019-04-10T18:25:58.415Z,9.00
2019-04-10T18:28:28.494Z,8.90
2019-04-10T18:30:58.591Z,8.90
2019-04-10T18:33:27.324Z,8.80
2019-04-10T18:35:55.997Z,8.80
2019-04-10T18:38:25.718Z,8.80
2019-04-10T18:41:00.835Z,8.70
2019-04-10T18:43:25.960Z,8.60
2019-04-10T18:46:06.130Z,8.60
2019-04-10T18:48:26.784Z,8.50
2019-04-10T18:50:55.784Z,8.50
2019-04-10T18:53:24.818Z,8.40
2019-04-10T18:55:56.683Z,8.40
2019-04-10T18:58:28.347Z,8.30
2019-04-10T19:01:16.062Z,8.30
2019-04-10T19:03:59.686Z,8.20
2019-04-10T19:06:29.903Z,8.20
2019-04-10T19:09:07.773Z,8.10
2019-04-10T19:11:33.564Z,8.10
2019-04-10T19:13:59.693Z,8.10
2019-04-10T19:16:29.733Z,8.00
2019-04-10T19:18:59.749Z,8.00
2019-04-10T19:21:29.350Z,8.00
2019-04-10T19:23:58.450Z,7.90
2019-04-10T19:26:27.466Z,7.90
2019-04-10T19:28:57.133Z,7.90
2019-04-10T19:31:26.345Z,7.80
2019-04-10T19:33:55.124Z,7.80
2019-04-10T19:36:23.908Z,7.70
2019-04-10T19:38:53.726Z,7.70
2019-04-10T19:41:30.778Z,7.70
2019-04-10T19:43:54.697Z,7.60
2019-04-10T19:46:23.920Z,7.60
2019-04-10T19:48:53.566Z,7.60
2019-04-10T19:51:22.495Z,7.60
2019-04-10T19:53:51.455Z,7.50
2019-04-10T19:56:20.359Z,7.50
2019-04-10T19:58:50.215Z,7.40
2019-04-10T20:01:19.254Z,7.40
2019-04-10T20:03:48.197Z,7.30
2019-04-10T20:06:18.262Z,7.40
2019-04-10T20:08:48.080Z,7.30
2019-04-10T20:11:17.015Z,7.30
2019-04-10T20:13:47.033Z,7.30
2019-04-10T20:16:16.273Z,7.30
2019-04-10T20:18:46.111Z,7.20
2019-04-10T20:21:15.524Z,7.20
2019-04-10T20:23:44.474Z,7.20
2019-04-10T20:26:14.767Z,7.10
2019-04-10T20:29:02.955Z,7.10
2019-04-10T20:31:34.371Z,7.00
2019-04-10T20:34:03.833Z,7.00
2019-04-10T20:36:33.240Z,7.00
2019-04-10T20:39:06.175Z,7.00
2019-04-10T20:41:47.572Z,6.90
2019-04-10T20:44:07.250Z,6.90
2019-04-10T20:46:36.604Z,6.80
2019-04-10T20:49:08.017Z,6.80
2019-04-10T20:51:36.230Z,6.80
2019-04-10T20:54:05.100Z,6.80
2019-04-10T20:56:34.765Z,6.80
2019-04-10T20:59:03.724Z,6.80
2019-04-10T21:01:33.048Z,6.70
2019-04-10T21:04:03.046Z,6.70
2019-04-10T21:06:31.965Z,6.60
2019-04-10T21:09:01.278Z,6.60
2019-04-10T21:11:30.272Z,6.60
2019-04-10T21:14:00.110Z,6.50
2019-04-10T21:16:28.864Z,6.50
2019-04-10T21:18:57.690Z,6.50
2019-04-10T21:21:26.457Z,6.40
2019-04-10T21:23:56.403Z,6.30
2019-04-10T21:26:25.303Z,6.30
2019-04-10T21:28:54.110Z,6.30
2019-04-10T21:31:36.332Z,6.20
2019-04-10T21:34:33.234Z,6.10
2019-04-10T21:37:02.081Z,6.00
2019-04-10T21:39:31.759Z,6.00
2019-04-10T21:42:11.980Z,6.00
2019-04-10T21:44:31.095Z,6.00
2019-04-10T21:46:59.866Z,5.90
2019-04-10T21:49:28.689Z,6.00
2019-04-10T21:51:57.896Z,5.90
2019-04-10T21:54:27.001Z,5.80
2019-04-10T21:56:55.973Z,5.80
2019-04-10T21:59:24.867Z,5.80
2019-04-10T22:01:54.713Z,5.70
2019-04-10T22:04:25.115Z,5.70
2019-04-10T22:07:11.910Z,5.60
2019-04-10T22:12:42.162Z,5.50
2019-04-10T22:18:17.070Z,5.40
2019-04-10T22:20:58.637Z,5.40
2019-04-10T22:23:40.547Z,5.40
2019-04-10T22:26:22.068Z,5.40
2019-04-10T22:29:03.612Z,5.40
2019-04-10T22:34:42.071Z,5.30
2019-04-10T22:37:31.907Z,5.40
2019-04-10T22:40:21.466Z,5.30
2019-04-10T22:42:51.746Z,5.30
2019-04-10T22:45:40.177Z,5.20
2019-04-10T22:48:08.922Z,5.20
2019-04-10T22:50:57.025Z,5.20
2019-04-10T22:53:39.547Z,5.10
2019-04-10T22:56:20.974Z,5.10
2019-04-10T22:59:01.941Z,5.10
2019-04-10T23:01:43.341Z,5.10
2019-04-10T23:04:12.313Z,5.00
2019-04-10T23:07:00.371Z,5.00
2019-04-10T23:09:29.113Z,5.00
2019-04-10T23:12:18.224Z,5.00
2019-04-10T23:15:07.116Z,5.00
2019-04-10T23:17:55.318Z,5.00
2019-04-10T23:20:43.860Z,4.90
2019-04-10T23:23:33.500Z,4.90
2019-04-10T23:26:22.747Z,4.90
2019-04-10T23:28:51.999Z,4.80
2019-04-10T23:31:39.967Z,4.80
2019-04-10T23:34:28.499Z,4.80
2019-04-10T23:37:18.417Z,4.80
2019-04-10T23:40:08.385Z,4.70
2019-04-10T23:43:08.010Z,4.70
2019-04-10T23:45:48.713Z,4.70
2019-04-10T23:48:37.146Z,4.70
2019-04-10T23:51:25.280Z,4.60
2019-04-10T23:54:05.792Z,4.60
2019-04-10T23:56:35.660Z,4.60
